createdAt,value
2018-06-16T00:00:03.200Z,81.26
2018-06-16T00:01:09.256Z,80.94
2018-06-16T00:02:15.504Z,80.22
2018-06-16T00:03:21.711Z,80.40
2018-06-16T00:04:27.984Z,79.73
2018-06-16T00:05:34.259Z,79.79
2018-06-16T00:06:40.239Z,80.13
2018-06-16T00:07:46.472Z,80.01
2018-06-16T00:08:52.752Z,79.68
2018-06-16T00:10:01.267Z,80.10
2018-06-16T00:11:07.301Z,79.80
2018-06-16T00:12:13.656Z,80.54
2018-06-16T00:13:20.324Z,80.44
2018-06-16T00:14:26.392Z,80.23
2018-06-16T00:15:32.632Z,80.16
2018-06-16T00:16:38.888Z,79.66
2018-06-16T00:17:45.112Z,80.24
2018-06-16T00:18:51.359Z,80.94
2018-06-16T00:19:57.637Z,80.84
2018-06-16T00:21:03.525Z,81.12
2018-06-16T00:22:09.771Z,81.23
2018-06-16T00:23:15.756Z,81.18
2018-06-16T00:24:21.685Z,80.62
2018-06-16T00:25:28.758Z,80.80
2018-06-16T00:26:36.620Z,80.53
2018-06-16T00:27:42.867Z,80.62
2018-06-16T00:28:49.148Z,80.34
2018-06-16T00:29:56.008Z,80.19
2018-06-16T00:31:02.319Z,80.22
2018-06-16T00:32:08.610Z,80.01
2018-06-16T00:33:14.877Z,79.71
2018-06-16T00:34:21.176Z,80.16
2018-06-16T00:35:27.451Z,80.13
2018-06-16T00:36:33.704Z,79.96
2018-06-16T00:37:39.739Z,79.58
2018-06-16T00:38:45.953Z,79.70
2018-06-16T00:39:52.194Z,79.74
2018-06-16T00:40:58.431Z,80.20
2018-06-16T00:42:05.705Z,80.18
2018-06-16T00:43:11.957Z,80.37
2018-06-16T00:44:18.212Z,80.79
2018-06-16T00:45:24.446Z,80.61
2018-06-16T00:46:30.683Z,80.43
2018-06-16T00:47:36.960Z,80.20
2018-06-16T00:48:43.212Z,80.06
2018-06-16T00:49:49.468Z,80.43
2018-06-16T00:50:55.726Z,79.31
2018-06-16T00:52:02.040Z,78.69
2018-06-16T00:53:08.332Z,78.84
2018-06-16T00:54:14.612Z,78.94
2018-06-16T00:55:25.912Z,78.50
2018-06-16T00:56:32.153Z,78.67
2018-06-16T00:57:39.308Z,79.31
2018-06-16T00:58:45.586Z,78.93
2018-06-16T00:59:51.844Z,79.06
2018-06-16T01:00:58.100Z,79.55
2018-06-16T01:02:05.336Z,79.90
2018-06-16T01:03:16.265Z,80.07
2018-06-16T01:04:22.477Z,80.05
2018-06-16T01:05:28.809Z,80.63
2018-06-16T01:06:35.044Z,80.97
2018-06-16T01:07:41.308Z,81.48
2018-06-16T01:08:47.592Z,81.59
2018-06-16T01:09:53.822Z,81.34
2018-06-16T01:11:00.072Z,81.11
2018-06-16T01:12:06.048Z,80.95
2018-06-16T01:13:12.272Z,80.25
2018-06-16T01:14:18.495Z,80.62
2018-06-16T01:15:24.767Z,81.07
2018-06-16T01:16:31.140Z,82.76
2018-06-16T01:17:37.376Z,82.33
2018-06-16T01:18:43.613Z,81.67
2018-06-16T01:19:49.879Z,81.83
2018-06-16T01:20:56.132Z,81.70
2018-06-16T01:22:02.396Z,81.37
2018-06-16T01:23:08.655Z,81.61
2018-06-16T01:24:14.965Z,81.35
2018-06-16T01:25:20.892Z,81.42
2018-06-16T01:26:27.127Z,81.13
2018-06-16T01:27:33.390Z,81.37
2018-06-16T01:28:39.324Z,81.37
2018-06-16T01:29:45.556Z,81.62
2018-06-16T01:30:51.797Z,81.89
2018-06-16T01:31:58.066Z,82.19
2018-06-16T01:33:06.489Z,82.79
2018-06-16T01:34:13.111Z,82.88
2018-06-16T01:35:19.364Z,82.78
2018-06-16T01:36:25.619Z,83.08
2018-06-16T01:37:31.948Z,83.46
2018-06-16T01:38:39.127Z,83.67
2018-06-16T01:39:45.372Z,83.65
2018-06-16T01:40:51.503Z,82.85
2018-06-16T01:41:57.716Z,81.89
2018-06-16T01:43:04.568Z,80.84
2018-06-16T01:44:11.688Z,81.16
2018-06-16T01:45:17.655Z,81.67
2018-06-16T01:46:23.906Z,82.32
2018-06-16T01:47:30.196Z,82.25
2018-06-16T01:48:36.651Z,82.06
2018-06-16T01:49:43.788Z,82.61
2018-06-16T01:50:50.933Z,83.30
2018-06-16T01:51:57.189Z,82.36
2018-06-16T01:53:03.479Z,83.04
2018-06-16T01:54:09.756Z,82.47
2018-06-16T01:55:15.997Z,82.99
2018-06-16T01:56:22.208Z,83.58
2018-06-16T01:57:28.448Z,83.77
2018-06-16T01:58:34.725Z,83.77
2018-06-16T01:59:40.992Z,84.24
2018-06-16T02:00:52.446Z,84.51
2018-06-16T02:01:58.691Z,84.85
2018-06-16T02:03:04.964Z,84.39
2018-06-16T02:04:11.397Z,84.08
2018-06-16T02:05:18.566Z,84.21
2018-06-16T02:06:24.836Z,84.95
2018-06-16T02:07:31.148Z,85.31
2018-06-16T02:08:37.441Z,85.37
2018-06-16T02:09:43.668Z,85.38
2018-06-16T02:10:49.969Z,85.33
2018-06-16T02:11:56.213Z,85.24
2018-06-16T02:13:02.493Z,85.46
2018-06-16T02:14:08.776Z,85.11
2018-06-16T02:15:15.051Z,84.36
2018-06-16T02:16:21.309Z,84.31
2018-06-16T02:17:27.571Z,84.55
2018-06-16T02:18:33.833Z,84.29
2018-06-16T02:19:40.068Z,84.44
2018-06-16T02:20:46.320Z,84.15
2018-06-16T02:21:52.612Z,84.33
2018-06-16T02:22:58.901Z,84.27
2018-06-16T02:24:04.853Z,84.58
2018-06-16T02:25:11.081Z,84.44
2018-06-16T02:26:17.310Z,85.70
2018-06-16T02:27:23.605Z,85.76
2018-06-16T02:28:29.874Z,85.44
2018-06-16T02:29:36.108Z,84.75
2018-06-16T02:30:41.996Z,84.48
2018-06-16T02:31:48.252Z,84.68
2018-06-16T02:32:54.523Z,84.25
2018-06-16T02:34:00.813Z,84.42
2018-06-16T02:35:07.057Z,84.86
2018-06-16T02:36:13.319Z,84.57
2018-06-16T02:37:19.520Z,85.03
2018-06-16T02:38:25.475Z,85.09
2018-06-16T02:39:31.487Z,85.70
2018-06-16T02:40:38.686Z,85.89
2018-06-16T02:41:45.781Z,85.37
2018-06-16T02:42:51.746Z,85.83
2018-06-16T02:43:58.885Z,85.85
2018-06-16T02:45:05.137Z,85.81
2018-06-16T02:46:11.373Z,85.73
2018-06-16T02:47:17.582Z,86.57
2018-06-16T02:48:23.817Z,86.18
2018-06-16T02:49:31.027Z,85.79
2018-06-16T02:50:37.326Z,85.60
2018-06-16T02:51:43.771Z,85.78
2018-06-16T02:52:50.262Z,86.17
2018-06-16T02:53:57.422Z,86.39
2018-06-16T02:55:03.683Z,86.66
2018-06-16T02:56:10.830Z,86.67
2018-06-16T02:57:17.852Z,86.71
2018-06-16T02:58:25.021Z,86.45
2018-06-16T02:59:31.307Z,86.49
2018-06-16T03:00:37.513Z,86.59
2018-06-16T03:01:43.498Z,86.51
2018-06-16T03:02:49.749Z,86.37
2018-06-16T03:03:56.037Z,86.71
2018-06-16T03:05:02.502Z,86.80
2018-06-16T03:06:08.763Z,86.25
2018-06-16T03:07:15.009Z,86.35
2018-06-16T03:08:21.300Z,86.54
2018-06-16T03:09:27.578Z,86.20
2018-06-16T03:10:33.840Z,87.09
2018-06-16T03:11:40.538Z,87.30
2018-06-16T03:12:47.082Z,86.87
2018-06-16T03:13:53.352Z,86.84
2018-06-16T03:14:59.582Z,86.59
2018-06-16T03:16:05.794Z,86.91
2018-06-16T03:17:12.038Z,86.81
2018-06-16T03:18:18.284Z,87.05
2018-06-16T03:19:24.562Z,86.72
2018-06-16T03:20:30.822Z,87.07
2018-06-16T03:21:37.052Z,87.11
2018-06-16T03:22:43.295Z,86.86
2018-06-16T03:23:49.578Z,86.92
2018-06-16T03:24:55.848Z,87.04
2018-06-16T03:26:02.060Z,86.90
2018-06-16T03:27:08.331Z,86.84
2018-06-16T03:28:14.576Z,88.14
2018-06-16T03:29:20.868Z,88.41
2018-06-16T03:30:27.147Z,88.44
2018-06-16T03:31:33.442Z,88.19
2018-06-16T03:32:39.656Z,88.00
2018-06-16T03:33:45.882Z,88.13
2018-06-16T03:34:52.160Z,87.94
2018-06-16T03:35:58.416Z,88.54
2018-06-16T03:37:04.702Z,88.19
2018-06-16T03:38:10.939Z,87.83
2018-06-16T03:39:17.181Z,87.68
2018-06-16T03:40:23.164Z,87.75
2018-06-16T03:41:29.373Z,87.95
2018-06-16T03:42:35.644Z,88.52
2018-06-16T03:43:41.890Z,88.21
2018-06-16T03:44:48.189Z,87.76
2018-06-16T03:45:54.448Z,87.39
2018-06-16T03:47:00.689Z,88.47
2018-06-16T03:48:13.392Z,88.77
2018-06-16T03:49:19.648Z,88.64
2018-06-16T03:50:25.929Z,88.69
2018-06-16T03:51:32.179Z,88.60
2018-06-16T03:52:38.217Z,88.88
2018-06-16T03:53:44.537Z,88.98
2018-06-16T03:54:50.952Z,88.95
2018-06-16T03:55:57.367Z,89.22
2018-06-16T03:57:03.588Z,89.50
2018-06-16T03:58:09.805Z,89.23
2018-06-16T03:59:16.029Z,89.00
2018-06-16T04:00:22.284Z,88.83
2018-06-16T04:01:28.573Z,88.64
2018-06-16T04:02:34.866Z,88.46
2018-06-16T04:03:41.131Z,88.33
2018-06-16T04:04:48.226Z,88.57
2018-06-16T04:05:54.442Z,88.07
2018-06-16T04:07:00.713Z,87.98
2018-06-16T04:08:06.669Z,88.04
2018-06-16T04:09:12.929Z,87.71
2018-06-16T04:10:19.197Z,87.65
2018-06-16T04:11:25.440Z,87.54
2018-06-16T04:12:31.668Z,87.35
2018-06-16T04:13:37.888Z,87.55
2018-06-16T04:14:44.133Z,88.51
2018-06-16T04:15:50.422Z,89.02
2018-06-16T04:16:56.660Z,88.95
2018-06-16T04:18:02.646Z,88.70
2018-06-16T04:19:08.907Z,88.75
2018-06-16T04:20:15.323Z,89.14
2018-06-16T04:21:21.612Z,88.95
2018-06-16T04:22:27.873Z,88.92
2018-06-16T04:23:34.129Z,88.78
2018-06-16T04:24:40.380Z,88.50
2018-06-16T04:25:46.720Z,87.36
2018-06-16T04:26:52.937Z,86.67
2018-06-16T04:27:58.803Z,86.49
2018-06-16T04:29:04.717Z,85.75
2018-06-16T04:30:10.967Z,85.46
2018-06-16T04:31:17.262Z,85.45
2018-06-16T04:32:23.510Z,85.29
2018-06-16T04:33:29.762Z,85.66
2018-06-16T04:34:35.968Z,85.53
2018-06-16T04:35:42.223Z,85.27
2018-06-16T04:36:48.666Z,85.28
2018-06-16T04:37:54.976Z,85.17
2018-06-16T04:39:01.177Z,85.29
2018-06-16T04:40:07.142Z,85.72
2018-06-16T04:41:14.239Z,85.67
2018-06-16T04:42:20.538Z,86.63
2018-06-16T04:43:26.798Z,85.97
2018-06-16T04:44:33.013Z,85.81
2018-06-16T04:45:39.382Z,85.58
2018-06-16T04:46:45.467Z,85.12
2018-06-16T04:47:51.696Z,84.51
2018-06-16T04:48:57.955Z,84.65
2018-06-16T04:50:03.851Z,84.42
2018-06-16T04:51:10.077Z,84.44
2018-06-16T04:52:16.312Z,84.48
2018-06-16T04:53:22.561Z,85.37
2018-06-16T04:54:28.805Z,85.19
2018-06-16T04:55:35.864Z,84.34
2018-06-16T04:56:42.704Z,84.02
2018-06-16T04:57:48.937Z,83.49
2018-06-16T04:58:54.907Z,83.30
2018-06-16T05:00:01.157Z,83.91
2018-06-16T05:01:07.441Z,83.85
2018-06-16T05:02:13.705Z,83.74
2018-06-16T05:03:19.955Z,83.39
2018-06-16T05:04:26.208Z,83.50
2018-06-16T05:05:32.502Z,84.17
2018-06-16T05:06:38.788Z,84.88
2018-06-16T05:07:45.024Z,84.76
2018-06-16T05:08:51.292Z,84.78
2018-06-16T05:09:57.569Z,84.72
2018-06-16T05:11:03.817Z,85.01
2018-06-16T05:12:10.083Z,85.09
2018-06-16T05:13:16.656Z,83.78
2018-06-16T05:14:24.030Z,84.43
2018-06-16T05:15:31.791Z,83.94
2018-06-16T05:16:40.521Z,82.99
2018-06-16T05:17:48.056Z,82.96
2018-06-16T05:18:55.430Z,83.31
2018-06-16T05:20:02.931Z,83.05
2018-06-16T05:21:10.225Z,82.70
2018-06-16T05:22:17.437Z,82.86
2018-06-16T05:23:24.922Z,82.96
2018-06-16T05:24:32.414Z,81.69
2018-06-16T05:25:39.984Z,81.52
2018-06-16T05:26:48.167Z,81.81
2018-06-16T05:27:55.715Z,80.62
2018-06-16T05:29:04.349Z,80.46
2018-06-16T05:30:11.463Z,80.81
2018-06-16T05:31:18.862Z,79.94
2018-06-16T05:32:26.638Z,79.93
2018-06-16T05:33:35.279Z,79.27
2018-06-16T05:34:43.423Z,79.06
2018-06-16T05:35:50.672Z,79.58
2018-06-16T05:36:57.994Z,79.31
2018-06-16T05:38:05.331Z,79.13
2018-06-16T05:39:12.887Z,79.40
2018-06-16T05:40:20.363Z,79.22
2018-06-16T05:41:28.788Z,79.28
2018-06-16T05:42:38.329Z,79.63
2018-06-16T05:43:45.862Z,79.43
2018-06-16T05:44:53.101Z,79.44
2018-06-16T05:46:00.212Z,78.87
2018-06-16T05:47:08.601Z,79.78
2018-06-16T05:48:17.106Z,78.84
2018-06-16T05:49:24.537Z,78.44
2018-06-16T05:50:34.061Z,78.33
2018-06-16T05:51:41.176Z,78.53
2018-06-16T05:52:51.046Z,78.24
2018-06-16T05:53:59.656Z,77.34
2018-06-16T05:55:05.836Z,76.50
2018-06-16T05:56:12.146Z,76.05
2018-06-16T05:57:18.739Z,76.37
2018-06-16T05:58:25.077Z,75.08
2018-06-16T05:59:31.839Z,75.83
2018-06-16T06:00:38.627Z,77.36
2018-06-16T06:01:45.294Z,76.99
2018-06-16T06:02:51.708Z,77.94
2018-06-16T06:03:58.102Z,77.36
2018-06-16T06:05:04.346Z,77.80
2018-06-16T06:06:10.780Z,76.72
2018-06-16T06:07:16.997Z,76.83
2018-06-16T06:08:24.591Z,75.98
2018-06-16T06:09:31.683Z,75.23
2018-06-16T06:10:38.138Z,75.19
2018-06-16T06:11:45.141Z,75.41
2018-06-16T06:12:55.078Z,74.62
2018-06-16T06:14:01.340Z,76.39
2018-06-16T06:15:07.604Z,75.77
2018-06-16T06:16:14.204Z,75.53
2018-06-16T06:17:20.674Z,74.54
2018-06-16T06:18:27.235Z,74.92
2018-06-16T06:19:33.288Z,76.59
2018-06-16T06:20:39.487Z,75.41
2018-06-16T06:21:46.180Z,74.00
2018-06-16T06:22:52.446Z,74.51
2018-06-16T06:24:00.483Z,74.36
2018-06-16T06:25:07.616Z,74.67
2018-06-16T06:26:13.865Z,74.56
2018-06-16T06:27:20.124Z,74.51
2018-06-16T06:28:26.376Z,74.80
2018-06-16T06:29:32.682Z,74.40
2018-06-16T06:30:38.965Z,74.07
2018-06-16T06:31:45.301Z,73.56
2018-06-16T06:32:51.626Z,73.35
2018-06-16T06:33:58.099Z,75.27
2018-06-16T06:35:04.508Z,72.28
2018-06-16T06:36:11.028Z,73.20
2018-06-16T06:37:17.325Z,71.81
2018-06-16T06:38:23.678Z,70.67
2018-06-16T06:39:30.868Z,69.40
2018-06-16T06:40:38.021Z,69.26
2018-06-16T06:41:44.402Z,68.44
2018-06-16T06:42:50.930Z,68.37
2018-06-16T06:43:58.154Z,68.83
2018-06-16T06:45:04.183Z,68.59
2018-06-16T06:46:10.520Z,67.71
2018-06-16T06:47:17.513Z,68.06
2018-06-16T06:48:24.001Z,67.08
2018-06-16T06:49:30.329Z,66.40
2018-06-16T06:50:36.693Z,66.51
2018-06-16T06:51:43.030Z,67.46
2018-06-16T06:52:49.527Z,67.30
2018-06-16T06:53:55.802Z,67.78
2018-06-16T06:55:02.876Z,67.84
2018-06-16T06:56:09.458Z,67.04
2018-06-16T06:57:15.925Z,67.38
2018-06-16T06:58:22.278Z,66.48
2018-06-16T06:59:28.531Z,65.47
2018-06-16T07:00:34.806Z,65.99
2018-06-16T07:01:41.057Z,65.22
2018-06-16T07:02:47.300Z,64.66
2018-06-16T07:03:53.533Z,64.93
2018-06-16T07:04:59.823Z,65.58
2018-06-16T07:06:06.029Z,65.02
2018-06-16T07:07:12.301Z,64.38
2018-06-16T07:08:18.592Z,63.85
2018-06-16T07:09:24.856Z,63.38
2018-06-16T07:10:31.309Z,63.49
2018-06-16T07:11:37.803Z,62.16
2018-06-16T07:12:44.019Z,62.49
2018-06-16T07:13:50.272Z,62.35
2018-06-16T07:14:56.498Z,62.68
2018-06-16T07:16:02.760Z,63.29
2018-06-16T07:17:08.965Z,63.20
2018-06-16T07:18:15.236Z,65.22
2018-06-16T07:19:21.440Z,63.30
2018-06-16T07:20:27.628Z,62.15
2018-06-16T07:21:33.834Z,63.30
2018-06-16T07:22:40.055Z,63.34
2018-06-16T07:23:46.232Z,62.10
2018-06-16T07:24:52.479Z,62.70
2018-06-16T07:25:58.758Z,62.30
2018-06-16T07:27:04.969Z,63.11
2018-06-16T07:28:11.224Z,62.50
2018-06-16T07:29:17.492Z,62.93
2018-06-16T07:30:23.908Z,64.30
2018-06-16T07:31:31.477Z,62.63
2018-06-16T07:32:38.528Z,62.54
2018-06-16T07:33:44.807Z,61.83
2018-06-16T07:34:51.032Z,62.77
2018-06-16T07:35:57.246Z,64.12
2018-06-16T07:37:03.523Z,63.33
2018-06-16T07:38:09.775Z,63.69
2018-06-16T07:39:15.994Z,63.79
2018-06-16T07:40:22.209Z,63.69
2018-06-16T07:41:28.442Z,64.06
2018-06-16T07:42:34.832Z,63.39
2018-06-16T07:43:41.099Z,64.64
2018-06-16T07:44:47.308Z,62.84
2018-06-16T07:45:53.500Z,63.71
2018-06-16T07:47:00.044Z,63.15
2018-06-16T07:48:07.255Z,64.66
2018-06-16T07:49:13.485Z,62.06
2018-06-16T07:50:19.724Z,63.16
2018-06-16T07:51:25.928Z,62.87
2018-06-16T07:52:32.181Z,62.73
2018-06-16T07:53:38.436Z,60.78
2018-06-16T07:54:44.720Z,61.36
2018-06-16T07:55:50.989Z,63.01
2018-06-16T07:56:57.221Z,61.53
2018-06-16T07:58:03.466Z,61.06
2018-06-16T07:59:09.704Z,60.70
2018-06-16T08:00:15.948Z,62.49
2018-06-16T08:01:22.199Z,62.08
2018-06-16T08:02:28.452Z,62.65
2018-06-16T08:03:34.690Z,61.51
2018-06-16T08:04:40.953Z,61.48
2018-06-16T08:05:47.148Z,61.18
2018-06-16T08:06:53.379Z,60.63
2018-06-16T08:07:59.563Z,60.66
2018-06-16T08:09:05.160Z,61.20
2018-06-16T08:10:11.061Z,60.79
2018-06-16T08:11:17.253Z,60.63
2018-06-16T08:12:23.439Z,60.74
2018-06-16T08:13:29.702Z,61.41
2018-06-16T08:14:36.065Z,60.23
2018-06-16T08:15:42.302Z,60.41
2018-06-16T08:16:48.539Z,61.49
2018-06-16T08:17:54.748Z,62.20
2018-06-16T08:19:01.018Z,60.67
2018-06-16T08:20:07.358Z,60.00
2018-06-16T08:21:13.561Z,59.04
2018-06-16T08:22:19.468Z,59.15
2018-06-16T08:23:27.575Z,59.33
2018-06-16T08:24:34.592Z,59.75
2018-06-16T08:25:40.996Z,60.60
2018-06-16T08:26:47.233Z,59.55
2018-06-16T08:27:53.460Z,62.26
2018-06-16T08:28:59.708Z,61.38
2018-06-16T08:30:06.187Z,59.63
2018-06-16T08:31:12.463Z,60.35
2018-06-16T08:32:18.729Z,59.91
2018-06-16T08:33:24.975Z,61.36
2018-06-16T08:34:31.226Z,61.55
2018-06-16T08:35:37.479Z,62.44
2018-06-16T08:36:43.731Z,62.56
2018-06-16T08:37:49.948Z,60.32
2018-06-16T08:38:56.938Z,62.29
2018-06-16T08:40:03.668Z,61.17
2018-06-16T08:41:09.891Z,60.15
2018-06-16T08:42:16.097Z,60.69
2018-06-16T08:43:22.043Z,60.44
2018-06-16T08:44:28.200Z,60.25
2018-06-16T08:45:34.112Z,61.70
2018-06-16T08:46:40.316Z,60.51
2018-06-16T08:47:46.584Z,60.96
2018-06-16T08:48:53.291Z,61.29
2018-06-16T08:50:00.289Z,61.37
2018-06-16T08:51:07.465Z,61.05
2018-06-16T08:52:14.331Z,59.89
2018-06-16T08:53:20.808Z,57.74
2018-06-16T08:54:27.356Z,59.20
2018-06-16T08:55:34.387Z,59.42
2018-06-16T08:56:40.476Z,59.09
2018-06-16T08:57:47.404Z,59.06
2018-06-16T08:58:54.070Z,58.94
2018-06-16T09:00:00.269Z,59.32
2018-06-16T09:01:06.304Z,59.67
2018-06-16T09:02:13.331Z,57.59
2018-06-16T09:03:21.311Z,57.76
2018-06-16T09:04:30.041Z,55.19
2018-06-16T09:05:37.740Z,54.96
2018-06-16T09:06:47.708Z,53.54
2018-06-16T09:07:56.869Z,53.14
2018-06-16T09:09:06.253Z,52.86
2018-06-16T09:10:13.597Z,52.97
2018-06-16T09:11:22.435Z,54.67
2018-06-16T09:12:29.112Z,53.44
2018-06-16T09:13:37.636Z,53.37
2018-06-16T09:14:45.241Z,54.23
2018-06-16T09:15:53.777Z,52.71
2018-06-16T09:17:01.695Z,52.84
2018-06-16T09:18:09.131Z,52.97
2018-06-16T09:19:16.009Z,52.54
2018-06-16T09:20:25.013Z,53.35
2018-06-16T09:21:32.889Z,53.29
2018-06-16T09:22:41.676Z,52.60
2018-06-16T09:23:48.418Z,51.87
2018-06-16T09:24:57.445Z,52.65
2018-06-16T09:26:05.685Z,53.18
2018-06-16T09:27:12.339Z,54.09
2018-06-16T09:28:19.849Z,53.39
2018-06-16T09:29:27.512Z,52.82
2018-06-16T09:30:39.528Z,52.32
2018-06-16T09:31:47.732Z,53.45
2018-06-16T09:32:55.402Z,50.58
2018-06-16T09:34:02.870Z,49.46
2018-06-16T09:35:11.556Z,49.70
2018-06-16T09:36:21.741Z,50.97
2018-06-16T09:37:29.842Z,52.01
2018-06-16T09:38:40.810Z,51.86
2018-06-16T09:39:52.664Z,51.89
2018-06-16T09:41:01.404Z,52.10
2018-06-16T09:42:11.416Z,52.18
2018-06-16T09:43:19.976Z,50.35
2018-06-16T09:44:27.384Z,51.47
2018-06-16T09:45:37.034Z,51.98
2018-06-16T09:46:46.375Z,52.30
2018-06-16T09:47:55.566Z,52.00
2018-06-16T09:49:04.227Z,51.69
2018-06-16T09:50:12.209Z,50.69
2018-06-16T09:51:22.375Z,50.46
2018-06-16T09:52:31.627Z,51.42
2018-06-16T09:53:41.051Z,50.23
2018-06-16T09:54:49.139Z,49.91
2018-06-16T09:55:57.705Z,48.41
2018-06-16T09:57:07.617Z,48.43
2018-06-16T09:58:14.530Z,48.12
2018-06-16T09:59:21.354Z,49.11
2018-06-16T10:00:29.246Z,48.58
2018-06-16T10:01:36.656Z,50.15
2018-06-16T10:02:44.944Z,48.99
2018-06-16T10:03:55.455Z,49.79
2018-06-16T10:05:03.191Z,49.06
2018-06-16T10:06:10.787Z,50.18
2018-06-16T10:07:19.710Z,50.12
2018-06-16T10:08:27.904Z,51.25
2018-06-16T10:09:36.675Z,50.74
2018-06-16T10:10:45.385Z,50.16
2018-06-16T10:11:53.082Z,49.64
2018-06-16T10:13:02.422Z,50.66
2018-06-16T10:14:11.398Z,47.42
2018-06-16T10:15:19.775Z,48.65
2018-06-16T10:16:28.148Z,48.81
2018-06-16T10:17:36.839Z,47.06
2018-06-16T10:18:44.941Z,47.30
2018-06-16T10:19:52.752Z,46.56
2018-06-16T10:21:01.320Z,45.89
2018-06-16T10:22:07.966Z,48.39
2018-06-16T10:23:17.042Z,47.38
2018-06-16T10:24:26.005Z,46.98
2018-06-16T10:25:34.085Z,46.48
2018-06-16T10:26:42.495Z,44.49
2018-06-16T10:27:50.003Z,46.23
2018-06-16T10:28:58.447Z,47.50
2018-06-16T10:30:05.691Z,46.00
2018-06-16T10:31:15.434Z,48.56
2018-06-16T10:32:23.058Z,47.11
2018-06-16T10:33:31.593Z,48.49
2018-06-16T10:34:38.636Z,48.08
2018-06-16T10:35:46.184Z,47.91
2018-06-16T10:36:56.031Z,48.08
2018-06-16T10:38:04.984Z,49.10
2018-06-16T10:39:15.215Z,50.09
2018-06-16T10:40:23.582Z,46.52
2018-06-16T10:41:33.481Z,47.33
2018-06-16T10:42:41.613Z,49.55
2018-06-16T10:43:48.790Z,49.56
2018-06-16T10:44:58.520Z,47.87
2018-06-16T10:46:06.446Z,46.88
2018-06-16T10:47:13.519Z,48.37
2018-06-16T10:48:21.009Z,45.23
2018-06-16T10:49:29.073Z,45.99
2018-06-16T10:50:37.042Z,46.14
2018-06-16T10:51:45.231Z,46.24
2018-06-16T10:52:51.996Z,46.93
2018-06-16T10:54:00.076Z,47.60
2018-06-16T10:55:09.408Z,46.43
2018-06-16T10:56:17.582Z,45.80
2018-06-16T10:57:24.810Z,47.45
2018-06-16T10:58:32.369Z,47.94
2018-06-16T10:59:41.119Z,50.02
2018-06-16T11:00:50.900Z,45.63
2018-06-16T11:01:59.772Z,46.00
2018-06-16T11:03:08.058Z,46.09
2018-06-16T11:04:20.109Z,47.53
2018-06-16T11:05:29.277Z,46.02
2018-06-16T11:06:36.989Z,46.51
2018-06-16T11:07:45.188Z,48.12
2018-06-16T11:08:53.739Z,45.95
2018-06-16T11:10:01.005Z,44.05
2018-06-16T11:11:08.496Z,46.87
2018-06-16T11:12:15.442Z,46.95
2018-06-16T11:13:22.631Z,45.82
2018-06-16T11:14:31.498Z,45.28
2018-06-16T11:16:50.770Z,46.96
2018-06-16T11:17:57.718Z,45.60
2018-06-16T11:19:04.929Z,44.25
2018-06-16T11:20:13.565Z,45.08
2018-06-16T11:21:19.853Z,45.93
2018-06-16T11:22:33.154Z,47.76
2018-06-16T11:23:40.127Z,45.58
2018-06-16T11:24:46.870Z,45.34
2018-06-16T11:25:54.101Z,43.48
2018-06-16T11:27:02.248Z,44.00
2018-06-16T11:28:09.398Z,44.53
2018-06-16T11:29:17.584Z,45.00
2018-06-16T11:30:26.308Z,45.22
2018-06-16T11:31:33.752Z,44.99
2018-06-16T11:32:42.457Z,47.13
2018-06-16T11:33:50.465Z,47.62
2018-06-16T11:34:58.522Z,46.00
2018-06-16T11:36:07.551Z,45.10
2018-06-16T11:37:15.803Z,44.55
2018-06-16T11:38:24.042Z,44.99
2018-06-16T11:39:31.752Z,45.26
2018-06-16T11:40:40.724Z,45.02
2018-06-16T11:41:49.722Z,46.47
2018-06-16T11:42:56.715Z,46.46
2018-06-16T11:44:03.836Z,45.75
2018-06-16T11:45:12.419Z,47.23
2018-06-16T11:46:21.599Z,46.23
2018-06-16T11:47:28.792Z,47.55
2018-06-16T11:48:37.307Z,47.21
2018-06-16T11:49:44.407Z,46.81
2018-06-16T11:50:52.617Z,46.26
2018-06-16T11:52:00.115Z,46.50
2018-06-16T11:53:06.751Z,46.65
2018-06-16T11:54:13.967Z,46.43
2018-06-16T11:55:20.208Z,46.48
2018-06-16T11:56:27.004Z,44.87
2018-06-16T11:57:35.037Z,44.60
2018-06-16T11:58:42.572Z,44.79
2018-06-16T11:59:49.489Z,43.82
2018-06-16T12:00:56.650Z,45.45
2018-06-16T12:02:04.183Z,44.21
2018-06-16T12:03:14.569Z,45.13
2018-06-16T12:04:21.420Z,43.86
2018-06-16T12:05:29.135Z,43.81
2018-06-16T12:06:37.216Z,43.93
2018-06-16T12:07:46.672Z,43.80
2018-06-16T12:08:54.453Z,44.27
2018-06-16T12:10:01.887Z,44.33
2018-06-16T12:11:09.435Z,45.39
2018-06-16T12:12:16.265Z,45.16
2018-06-16T12:13:26.159Z,45.87
2018-06-16T12:14:33.246Z,45.79
2018-06-16T12:15:43.717Z,47.26
2018-06-16T12:16:52.007Z,46.29
2018-06-16T12:18:01.499Z,43.28
2018-06-16T12:19:08.648Z,42.88
2018-06-16T12:20:16.433Z,44.59
2018-06-16T12:21:22.773Z,44.81
2018-06-16T12:22:30.481Z,45.21
2018-06-16T12:23:37.552Z,45.40
2018-06-16T12:24:44.317Z,45.26
2018-06-16T12:25:52.431Z,44.18
2018-06-16T12:27:00.884Z,44.31
2018-06-16T12:28:08.673Z,46.76
2018-06-16T12:29:15.965Z,45.99
2018-06-16T12:30:22.925Z,44.82
2018-06-16T12:31:30.260Z,44.33
2018-06-16T12:32:37.802Z,43.70
2018-06-16T12:33:47.957Z,42.62
2018-06-16T12:34:54.888Z,43.59
2018-06-16T12:36:01.798Z,44.56
2018-06-16T12:37:10.373Z,42.47
2018-06-16T12:38:17.650Z,41.72
2018-06-16T12:39:24.421Z,40.48
2018-06-16T12:40:32.621Z,40.37
2018-06-16T12:41:40.025Z,41.12
2018-06-16T12:42:49.134Z,38.15
2018-06-16T12:43:58.291Z,39.37
2018-06-16T12:45:06.635Z,36.24
2018-06-16T12:46:13.516Z,35.78
2018-06-16T12:47:20.805Z,36.50
2018-06-16T12:48:29.196Z,37.02
2018-06-16T12:49:37.816Z,36.85
2018-06-16T12:50:45.788Z,38.40
2018-06-16T12:51:53.790Z,38.21
2018-06-16T12:53:02.507Z,38.24
2018-06-16T12:54:09.944Z,38.60
2018-06-16T12:55:16.778Z,38.48
2018-06-16T12:56:26.058Z,40.30
2018-06-16T12:57:35.630Z,39.64
2018-06-16T12:58:43.094Z,37.61
2018-06-16T12:59:50.843Z,38.88
2018-06-16T13:00:59.978Z,39.56
2018-06-16T13:02:08.622Z,36.15
2018-06-16T13:03:15.915Z,36.33
2018-06-16T13:04:24.306Z,37.86
2018-06-16T13:05:34.065Z,38.42
2018-06-16T13:06:41.503Z,38.27
2018-06-16T13:07:50.873Z,38.40
2018-06-16T13:08:59.644Z,36.58
2018-06-16T13:10:09.784Z,38.12
2018-06-16T13:11:16.375Z,37.63
2018-06-16T13:12:24.321Z,36.79
2018-06-16T13:13:30.403Z,36.99
2018-06-16T13:14:37.287Z,37.35
2018-06-16T13:15:44.585Z,37.51
2018-06-16T13:16:52.743Z,39.05
2018-06-16T13:17:59.861Z,38.77
2018-06-16T13:19:08.229Z,37.99
2018-06-16T13:20:16.077Z,38.46
2018-06-16T13:21:24.101Z,38.11
2018-06-16T13:22:31.999Z,38.38
2018-06-16T13:23:41.000Z,38.82
2018-06-16T13:24:47.353Z,38.31
2018-06-16T13:25:54.742Z,37.75
2018-06-16T13:27:01.927Z,37.77
2018-06-16T13:28:10.292Z,38.93
2018-06-16T13:29:18.362Z,41.63
2018-06-16T13:30:25.838Z,40.65
2018-06-16T13:31:32.805Z,40.32
2018-06-16T13:32:39.561Z,39.74
2018-06-16T13:33:46.324Z,40.21
2018-06-16T13:34:53.443Z,38.84
2018-06-16T13:36:03.334Z,40.77
2018-06-16T13:37:11.327Z,39.79
2018-06-16T13:38:18.141Z,41.59
2018-06-16T13:39:24.719Z,38.90
2018-06-16T13:40:31.643Z,37.91
2018-06-16T13:41:38.680Z,37.58
2018-06-16T13:42:45.746Z,38.58
2018-06-16T13:43:51.963Z,37.66
2018-06-16T13:44:59.646Z,37.61
2018-06-16T13:46:06.539Z,37.17
2018-06-16T13:47:14.925Z,36.43
2018-06-16T13:48:22.840Z,35.87
2018-06-16T13:49:29.408Z,35.87
2018-06-16T13:50:37.306Z,34.84
2018-06-16T13:51:45.580Z,34.38
2018-06-16T13:52:54.780Z,35.83
2018-06-16T13:54:03.356Z,34.95
2018-06-16T13:55:10.205Z,35.04
2018-06-16T13:56:16.830Z,34.42
2018-06-16T13:57:24.111Z,34.60
2018-06-16T13:58:32.730Z,35.50
2018-06-16T13:59:40.858Z,35.74
2018-06-16T14:00:48.545Z,35.56
2018-06-16T14:01:55.281Z,33.82
2018-06-16T14:03:02.704Z,35.40
2018-06-16T14:04:11.634Z,33.36
2018-06-16T14:05:19.899Z,34.40
2018-06-16T14:06:26.918Z,32.78
2018-06-16T14:07:33.370Z,33.28
2018-06-16T14:08:41.480Z,33.38
2018-06-16T14:09:48.943Z,33.75
2018-06-16T14:10:56.524Z,32.82
2018-06-16T14:12:03.873Z,32.56
2018-06-16T14:13:11.512Z,33.48
2018-06-16T14:14:18.565Z,32.67
2018-06-16T14:15:25.352Z,32.34
2018-06-16T14:16:32.767Z,32.88
2018-06-16T14:17:39.786Z,33.34
2018-06-16T14:18:48.957Z,33.66
2018-06-16T14:19:59.483Z,34.28
2018-06-16T14:21:06.748Z,34.15
2018-06-16T14:22:13.368Z,33.83
2018-06-16T14:23:19.917Z,33.76
2018-06-16T14:24:27.053Z,34.85